createdAt,value
2022-11-30T00:00:20.491Z,8.14
2022-11-30T00:02:47.727Z,8.10
2022-11-30T00:05:14.114Z,8.05
2022-11-30T00:07:40.452Z,8.09
2022-11-30T00:10:07.865Z,8.08
2022-11-30T00:12:34.219Z,8.06
2022-11-30T00:15:00.555Z,8.05
2022-11-30T00:17:26.869Z,8.04
2022-11-30T00:19:53.148Z,8.06
2022-11-30T00:22:19.527Z,8.04
2022-11-30T00:24:46.086Z,8.02
2022-11-30T00:27:12.633Z,7.98
2022-11-30T00:29:38.994Z,7.97
2022-11-30T00:32:05.559Z,7.99
2022-11-30T00:34:31.873Z,7.96
2022-11-30T00:36:58.154Z,7.95
2022-11-30T00:39:24.489Z,7.95
2022-11-30T00:41:51.033Z,7.93
2022-11-30T00:44:17.495Z,7.90
2022-11-30T00:46:43.842Z,7.93
2022-11-30T00:49:10.173Z,7.94
2022-11-30T00:51:36.490Z,7.90
2022-11-30T00:54:02.904Z,7.91
2022-11-30T00:56:29.261Z,7.92
2022-11-30T00:58:55.586Z,7.91
2022-11-30T01:01:21.970Z,7.90
2022-11-30T01:03:48.353Z,7.87
2022-11-30T01:06:14.655Z,7.89
2022-11-30T01:08:40.940Z,7.86
2022-11-30T01:11:14.888Z,7.80
2022-11-30T01:13:41.247Z,7.79
2022-11-30T01:16:14.171Z,7.76
2022-11-30T01:18:40.673Z,7.74
2022-11-30T01:21:13.595Z,7.73
2022-11-30T01:23:40.709Z,7.68
2022-11-30T01:26:07.830Z,7.64
2022-11-30T01:28:35.014Z,7.63
2022-11-30T01:31:04.776Z,7.60
2022-11-30T01:33:31.310Z,7.58
2022-11-30T01:36:07.249Z,7.56
2022-11-30T01:38:39.865Z,7.52
2022-11-30T01:41:07.750Z,7.54
2022-11-30T01:43:49.588Z,7.51
2022-11-30T01:46:42.424Z,7.51
2022-11-30T01:49:08.713Z,7.51
2022-11-30T01:51:58.393Z,7.48
2022-11-30T01:54:38.918Z,7.50
2022-11-30T01:57:15.640Z,7.53
2022-11-30T01:59:42.433Z,7.53
2022-11-30T02:02:08.813Z,7.49
2022-11-30T02:04:40.506Z,7.51
2022-11-30T02:07:07.974Z,7.53
2022-11-30T02:09:41.983Z,7.56
2022-11-30T02:12:18.406Z,7.56
2022-11-30T02:14:56.911Z,7.56
2022-11-30T02:17:35.436Z,7.54
2022-11-30T02:20:15.751Z,7.51
2022-11-30T02:23:26.654Z,7.49
2022-11-30T02:26:22.846Z,7.49
2022-11-30T02:29:25.059Z,7.54
2022-11-30T02:32:12.006Z,7.52
2022-11-30T02:34:41.349Z,7.52
2022-11-30T02:37:10.758Z,7.51
2022-11-30T02:39:37.170Z,7.46
2022-11-30T02:42:03.504Z,7.46
2022-11-30T02:44:30.035Z,7.48
2022-11-30T02:47:20.067Z,7.43
2022-11-30T02:50:00.508Z,7.42
2022-11-30T02:52:29.095Z,7.42
2022-11-30T02:55:00.752Z,7.40
2022-11-30T02:57:27.082Z,7.36
2022-11-30T02:59:53.851Z,7.38
2022-11-30T03:02:20.259Z,7.39
2022-11-30T03:04:46.761Z,7.35
2022-11-30T03:07:13.182Z,7.31
2022-11-30T03:09:39.525Z,7.30
2022-11-30T03:12:06.120Z,7.28
2022-11-30T03:14:32.680Z,7.27
2022-11-30T03:16:59.056Z,7.28
2022-11-30T03:19:25.347Z,7.24
2022-11-30T03:21:51.638Z,7.25
2022-11-30T03:24:17.980Z,7.23
2022-11-30T03:26:44.343Z,7.26
2022-11-30T03:29:10.702Z,7.25
2022-11-30T03:31:37.040Z,7.21
2022-11-30T03:34:03.498Z,7.17
2022-11-30T03:36:29.909Z,7.15
2022-11-30T03:38:56.252Z,7.14
2022-11-30T03:41:22.563Z,7.14
2022-11-30T03:43:49.629Z,7.19
2022-11-30T03:46:16.218Z,7.19
2022-11-30T03:48:42.706Z,7.23
2022-11-30T03:51:10.647Z,7.24
2022-11-30T03:53:37.058Z,7.21
2022-11-30T03:56:06.030Z,7.16
2022-11-30T03:58:32.780Z,7.14
2022-11-30T04:01:07.205Z,7.14
2022-11-30T04:03:34.432Z,7.16
2022-11-30T04:06:02.500Z,7.13
2022-11-30T04:08:29.646Z,7.05
2022-11-30T04:10:58.176Z,7.04
2022-11-30T04:13:25.545Z,7.03
2022-11-30T04:15:53.354Z,7.06
2022-11-30T04:18:21.850Z,7.04
2022-11-30T04:20:51.219Z,7.04
2022-11-30T04:23:18.679Z,7.02
2022-11-30T04:25:45.220Z,7.01
2022-11-30T04:28:11.716Z,6.99
2022-11-30T04:30:38.234Z,6.98
2022-11-30T04:33:05.579Z,6.93
2022-11-30T04:35:32.740Z,6.94
2022-11-30T04:38:00.169Z,6.93
2022-11-30T04:40:26.587Z,6.91
2022-11-30T04:42:52.879Z,6.87
2022-11-30T04:45:19.536Z,6.84
2022-11-30T04:47:45.906Z,6.81
2022-11-30T04:50:12.262Z,6.82
2022-11-30T04:52:38.625Z,6.78
2022-11-30T04:55:05.362Z,6.79
2022-11-30T04:57:31.719Z,6.81
2022-11-30T04:59:58.388Z,6.82
2022-11-30T05:02:24.682Z,6.77
2022-11-30T05:04:51.302Z,6.74
2022-11-30T05:07:17.795Z,6.77
2022-11-30T05:09:44.224Z,6.78
2022-11-30T05:12:10.716Z,6.76
2022-11-30T05:14:37.332Z,6.76
2022-11-30T05:17:04.161Z,6.69
2022-11-30T05:19:30.774Z,6.71
2022-11-30T05:21:57.159Z,6.63
2022-11-30T05:24:23.519Z,6.57
2022-11-30T05:26:49.840Z,6.54
2022-11-30T05:29:16.405Z,6.52
2022-11-30T05:31:42.757Z,6.49
2022-11-30T05:34:09.544Z,6.44
2022-11-30T05:36:35.912Z,6.46
2022-11-30T05:39:03.435Z,6.38
2022-11-30T05:41:29.840Z,6.32
2022-11-30T05:43:56.689Z,6.27
2022-11-30T05:46:23.423Z,6.27
2022-11-30T05:48:49.921Z,6.26
2022-11-30T05:51:18.113Z,6.17
2022-11-30T05:53:46.570Z,6.18
2022-11-30T05:56:16.283Z,6.16
2022-11-30T05:58:43.152Z,6.14
2022-11-30T06:01:22.215Z,6.08
2022-11-30T06:03:48.962Z,6.06
2022-11-30T06:06:17.635Z,6.06
2022-11-30T06:08:46.439Z,6.08
2022-11-30T06:11:13.486Z,6.04
2022-11-30T06:13:40.390Z,5.95
2022-11-30T06:16:07.768Z,5.89
2022-11-30T06:18:36.071Z,5.85
2022-11-30T06:21:07.197Z,5.78
2022-11-30T06:23:34.233Z,5.74
2022-11-30T06:26:09.737Z,5.72
2022-11-30T06:28:36.582Z,5.72
2022-11-30T06:31:04.855Z,5.67
2022-11-30T06:33:31.721Z,5.61
2022-11-30T06:35:58.227Z,5.56
2022-11-30T06:38:24.773Z,5.49
2022-11-30T06:40:52.027Z,5.49
2022-11-30T06:43:18.918Z,5.48
2022-11-30T06:45:47.140Z,5.47
2022-11-30T06:48:13.941Z,5.46
2022-11-30T06:50:45.482Z,5.40
2022-11-30T06:53:14.907Z,5.42
2022-11-30T06:55:41.351Z,5.41
2022-11-30T06:58:09.087Z,5.37
2022-11-30T07:00:36.622Z,5.30
2022-11-30T07:03:03.989Z,5.27
2022-11-30T07:05:34.187Z,5.16
2022-11-30T07:08:00.900Z,5.11
2022-11-30T07:10:27.275Z,5.06
2022-11-30T07:12:53.576Z,5.08
2022-11-30T07:15:19.869Z,4.97
2022-11-30T07:17:46.205Z,4.94
2022-11-30T07:20:12.756Z,4.88
2022-11-30T07:22:39.056Z,4.83
2022-11-30T07:25:05.870Z,4.74
2022-11-30T07:27:32.198Z,4.71
2022-11-30T07:29:58.486Z,4.72
2022-11-30T07:32:24.824Z,4.68
2022-11-30T07:34:51.355Z,4.63
2022-11-30T07:37:17.703Z,4.69
2022-11-30T07:39:44.239Z,4.73
2022-11-30T07:42:10.579Z,4.71
2022-11-30T07:44:36.862Z,4.74
2022-11-30T07:47:03.203Z,4.75
2022-11-30T07:49:29.509Z,4.74
2022-11-30T07:51:55.834Z,4.69
2022-11-30T07:54:22.133Z,4.75
2022-11-30T07:56:48.486Z,4.78
2022-11-30T07:59:14.902Z,4.88
2022-11-30T08:01:41.401Z,4.88
2022-11-30T08:04:07.878Z,4.87
2022-11-30T08:06:34.240Z,4.89
2022-11-30T08:09:03.537Z,4.92
2022-11-30T08:11:31.982Z,4.92
2022-11-30T08:13:58.404Z,4.98
2022-11-30T08:16:27.275Z,4.94
2022-11-30T08:18:55.937Z,5.01
2022-11-30T08:21:22.853Z,4.97
2022-11-30T08:23:52.350Z,4.89
2022-11-30T08:26:21.431Z,4.87
2022-11-30T08:28:49.583Z,4.85
2022-11-30T08:31:19.190Z,4.85
2022-11-30T08:33:46.685Z,4.90
2022-11-30T08:36:18.387Z,4.88
2022-11-30T08:38:46.027Z,5.00
2022-11-30T08:41:14.995Z,5.11
2022-11-30T08:43:41.785Z,5.24
2022-11-30T08:46:34.740Z,5.36
2022-11-30T08:49:13.060Z,5.42
2022-11-30T08:52:15.270Z,5.49
2022-11-30T08:54:29.798Z,5.68
2022-11-30T08:56:56.305Z,5.71
2022-11-30T08:59:22.718Z,5.75
2022-11-30T09:01:49.052Z,5.82
2022-11-30T09:04:15.444Z,5.87
2022-11-30T09:06:41.780Z,5.95
2022-11-30T09:09:08.085Z,6.00
2022-11-30T09:11:34.447Z,6.05
2022-11-30T09:14:02.859Z,6.16
2022-11-30T09:16:29.288Z,6.25
2022-11-30T09:18:55.668Z,6.34
2022-11-30T09:21:23.966Z,6.36
2022-11-30T09:23:51.208Z,6.34
2022-11-30T09:26:19.473Z,6.46
2022-11-30T09:28:47.556Z,6.42
2022-11-30T09:31:25.436Z,6.51
2022-11-30T09:33:53.014Z,6.48
2022-11-30T09:36:21.535Z,6.55
2022-11-30T09:38:48.633Z,6.64
2022-11-30T09:41:33.649Z,6.64
2022-11-30T09:44:24.679Z,6.81
2022-11-30T09:47:04.283Z,6.88
2022-11-30T09:49:35.846Z,7.00
2022-11-30T09:52:05.875Z,7.01
2022-11-30T09:54:38.223Z,7.04
2022-11-30T09:57:13.374Z,7.34
2022-11-30T09:59:43.657Z,7.70
2022-11-30T10:02:16.949Z,8.23
2022-11-30T10:04:43.911Z,8.91
2022-11-30T10:07:37.351Z,9.48
2022-11-30T10:10:32.159Z,10.22
2022-11-30T10:13:27.153Z,10.53
2022-11-30T10:16:11.651Z,10.36
2022-11-30T10:18:50.098Z,10.03
2022-11-30T10:21:22.573Z,9.86
2022-11-30T10:24:04.452Z,9.78
2022-11-30T10:26:36.012Z,10.43
2022-11-30T10:29:34.227Z,10.57
2022-11-30T10:32:12.262Z,10.73
2022-11-30T10:34:40.430Z,10.81
2022-11-30T10:37:17.169Z,10.97
2022-11-30T10:39:52.553Z,11.07
2022-11-30T10:42:24.942Z,11.03
2022-11-30T10:45:03.210Z,11.10
2022-11-30T10:47:33.422Z,11.14
2022-11-30T10:50:00.073Z,11.83
2022-11-30T10:52:34.607Z,13.19
2022-11-30T10:55:04.895Z,13.90
2022-11-30T10:57:33.140Z,14.54
2022-11-30T11:00:01.099Z,14.56
2022-11-30T11:02:44.248Z,15.02
2022-11-30T11:05:25.367Z,15.07
2022-11-30T11:07:51.895Z,14.94
2022-11-30T11:10:21.311Z,15.21
2022-11-30T11:12:53.662Z,14.86
2022-11-30T11:15:30.232Z,14.53
2022-11-30T11:18:20.827Z,14.71
2022-11-30T11:20:47.288Z,15.80
2022-11-30T11:23:29.920Z,16.59
2022-11-30T11:25:56.499Z,18.06
2022-11-30T11:28:25.051Z,18.43
2022-11-30T11:30:54.769Z,18.78
2022-11-30T11:33:29.218Z,18.78
2022-11-30T11:36:13.972Z,17.79
2022-11-30T11:38:47.919Z,16.34
2022-11-30T11:41:34.982Z,14.70
2022-11-30T11:44:08.766Z,13.18
2022-11-30T11:46:54.757Z,12.39
2022-11-30T11:49:28.018Z,12.39
2022-11-30T11:52:04.389Z,13.03
2022-11-30T11:54:38.500Z,12.74
2022-11-30T11:57:09.909Z,13.28
2022-11-30T11:59:54.047Z,14.93
2022-11-30T12:02:49.951Z,15.33
2022-11-30T12:05:23.869Z,15.78
2022-11-30T12:08:10.504Z,14.99
2022-11-30T12:10:53.472Z,15.51
2022-11-30T12:13:32.905Z,16.59
2022-11-30T12:16:02.335Z,16.50
2022-11-30T12:19:12.236Z,17.86
2022-11-30T12:22:29.576Z,19.31
2022-11-30T12:25:26.919Z,18.70
2022-11-30T12:27:56.294Z,18.82
2022-11-30T12:30:49.240Z,18.26
2022-11-30T12:33:44.290Z,17.03
2022-11-30T12:36:23.234Z,16.73
2022-11-30T12:38:57.401Z,15.93
2022-11-30T12:41:44.277Z,14.71
2022-11-30T12:44:42.573Z,15.01
2022-11-30T12:47:22.975Z,15.53
2022-11-30T12:50:16.062Z,16.36
2022-11-30T12:53:09.764Z,17.09
2022-11-30T12:56:07.816Z,17.70
2022-11-30T12:58:55.942Z,16.56
2022-11-30T13:01:37.800Z,15.06
2022-11-30T13:04:22.490Z,14.74
2022-11-30T13:06:57.972Z,15.28
2022-11-30T13:09:36.783Z,15.66
2022-11-30T13:12:12.269Z,16.41
2022-11-30T13:14:39.282Z,16.86
2022-11-30T13:17:07.548Z,16.83
2022-11-30T13:19:46.124Z,16.32
2022-11-30T13:22:22.239Z,14.73
2022-11-30T13:24:54.641Z,13.57
2022-11-30T13:27:39.461Z,12.36
2022-11-30T13:30:31.837Z,12.33
2022-11-30T13:33:36.871Z,12.88
2022-11-30T13:36:22.521Z,13.52
2022-11-30T13:39:09.838Z,13.84
2022-11-30T13:41:37.434Z,14.91
2022-11-30T13:44:04.472Z,15.49
2022-11-30T13:46:31.091Z,15.04
2022-11-30T13:49:22.934Z,14.99
2022-11-30T13:52:07.066Z,15.00
2022-11-30T13:54:40.307Z,13.95
2022-11-30T13:57:38.868Z,12.45
2022-11-30T14:00:31.467Z,11.88
2022-11-30T14:03:21.567Z,11.23
2022-11-30T14:05:54.757Z,10.86
2022-11-30T14:08:21.198Z,10.32
2022-11-30T14:10:51.666Z,10.05
2022-11-30T14:13:17.926Z,9.70
2022-11-30T14:15:44.276Z,9.63
2022-11-30T14:18:10.554Z,9.57
2022-11-30T14:20:46.006Z,9.50
2022-11-30T14:23:18.656Z,9.36
2022-11-30T14:25:50.190Z,9.32
2022-11-30T14:28:21.663Z,9.24
2022-11-30T14:30:49.096Z,9.11
2022-11-30T14:33:24.215Z,9.17
2022-11-30T14:35:55.790Z,9.04
2022-11-30T14:38:31.424Z,9.06
2022-11-30T14:40:58.604Z,9.12
2022-11-30T14:43:25.659Z,8.99
2022-11-30T14:46:09.107Z,8.96
2022-11-30T14:48:39.514Z,9.02
2022-11-30T14:51:06.052Z,8.97
2022-11-30T14:54:02.577Z,8.93
2022-11-30T14:56:36.685Z,8.78
2022-11-30T14:59:15.956Z,8.64
2022-11-30T15:01:42.639Z,8.59
2022-11-30T15:04:17.480Z,8.59
2022-11-30T15:06:44.881Z,8.30
2022-11-30T15:09:17.553Z,8.17
2022-11-30T15:11:46.743Z,8.13
2022-11-30T15:14:13.453Z,7.98
2022-11-30T15:16:53.353Z,7.83
2022-11-30T15:19:31.904Z,7.74
2022-11-30T15:21:59.066Z,7.59
2022-11-30T15:24:26.381Z,7.50
2022-11-30T15:26:57.712Z,7.39
2022-11-30T15:29:30.138Z,7.27
2022-11-30T15:31:59.922Z,7.23
2022-11-30T15:34:35.161Z,7.12
2022-11-30T15:37:01.805Z,7.04
2022-11-30T15:39:29.817Z,7.01
2022-11-30T15:41:59.419Z,7.02
2022-11-30T15:44:37.530Z,6.94
2022-11-30T15:47:06.610Z,6.90
2022-11-30T15:49:34.438Z,6.85
2022-11-30T15:52:25.448Z,6.80
2022-11-30T15:54:57.468Z,6.75
2022-11-30T15:57:25.672Z,6.66
2022-11-30T16:00:14.559Z,6.70
2022-11-30T16:02:41.282Z,6.71
2022-11-30T16:05:28.899Z,6.79
2022-11-30T16:07:58.058Z,6.72
2022-11-30T16:10:28.657Z,6.73
2022-11-30T16:12:55.756Z,6.84
2022-11-30T16:15:26.328Z,6.81
2022-11-30T16:18:00.984Z,6.85
2022-11-30T16:20:27.348Z,6.85
2022-11-30T16:22:54.451Z,6.84
2022-11-30T16:25:24.305Z,6.89
2022-11-30T16:27:51.327Z,6.80
2022-11-30T16:30:23.096Z,6.82
2022-11-30T16:32:52.188Z,6.76
2022-11-30T16:35:25.755Z,6.78
2022-11-30T16:37:52.176Z,6.78
2022-11-30T16:40:20.277Z,6.81
2022-11-30T16:42:48.999Z,6.81
2022-11-30T16:45:24.087Z,6.77
2022-11-30T16:47:52.151Z,6.68
2022-11-30T16:50:19.343Z,6.72
2022-11-30T16:52:46.436Z,6.69
2022-11-30T16:55:20.997Z,6.72
2022-11-30T16:57:48.819Z,6.63
2022-11-30T17:00:19.101Z,6.59
2022-11-30T17:02:59.972Z,6.50
2022-11-30T17:05:27.588Z,6.40
2022-11-30T17:07:54.957Z,6.36
2022-11-30T17:10:22.891Z,6.27
2022-11-30T17:12:49.449Z,6.16
2022-11-30T17:15:18.876Z,6.16
2022-11-30T17:17:45.352Z,6.18
2022-11-30T17:20:14.227Z,6.10
2022-11-30T17:22:41.838Z,5.91
2022-11-30T17:25:20.265Z,5.67
2022-11-30T17:27:48.206Z,5.64
2022-11-30T17:30:16.346Z,5.53
2022-11-30T17:32:43.056Z,5.46
2022-11-30T17:35:12.079Z,5.42
2022-11-30T17:37:38.608Z,5.34
2022-11-30T17:40:05.949Z,5.29
2022-11-30T17:42:32.589Z,5.18
2022-11-30T17:44:59.322Z,5.10
2022-11-30T17:47:26.529Z,5.04
2022-11-30T17:49:53.092Z,5.08
2022-11-30T17:52:22.140Z,4.93
2022-11-30T17:54:48.739Z,4.89
2022-11-30T17:57:15.288Z,4.80
2022-11-30T17:59:41.968Z,4.73
2022-11-30T18:02:12.147Z,4.68
2022-11-30T18:04:38.597Z,4.60
2022-11-30T18:07:05.456Z,4.60
2022-11-30T18:09:37.839Z,4.59
2022-11-30T18:12:07.845Z,4.59
2022-11-30T18:14:34.272Z,4.63
2022-11-30T18:17:03.606Z,4.53
2022-11-30T18:19:29.928Z,4.52
2022-11-30T18:21:56.318Z,4.55
2022-11-30T18:24:26.832Z,4.48
2022-11-30T18:26:53.821Z,4.35
2022-11-30T18:29:20.625Z,4.41
2022-11-30T18:31:47.042Z,4.37
2022-11-30T18:34:13.932Z,4.41
2022-11-30T18:36:40.379Z,4.46
2022-11-30T18:39:06.763Z,4.48
2022-11-30T18:41:33.189Z,4.44
2022-11-30T18:43:59.648Z,4.47
2022-11-30T18:46:26.166Z,4.44
2022-11-30T18:48:53.114Z,4.44
2022-11-30T18:51:22.329Z,4.34
2022-11-30T18:53:49.319Z,4.45
2022-11-30T18:56:20.426Z,4.48
2022-11-30T18:58:47.817Z,4.46
2022-11-30T19:01:17.194Z,4.40
2022-11-30T19:03:48.833Z,4.40
2022-11-30T19:06:15.160Z,4.28
2022-11-30T19:08:41.592Z,4.23
2022-11-30T19:11:09.432Z,4.19
2022-11-30T19:13:36.364Z,4.16
2022-11-30T19:16:04.624Z,4.21
2022-11-30T19:18:31.930Z,4.17
2022-11-30T19:20:58.431Z,4.19
2022-11-30T19:23:25.278Z,4.21
2022-11-30T19:25:52.045Z,4.29
2022-11-30T19:28:21.908Z,4.35
2022-11-30T19:30:48.291Z,4.35
2022-11-30T19:33:14.692Z,4.33
2022-11-30T19:35:41.042Z,4.37
2022-11-30T19:38:07.430Z,4.37
2022-11-30T19:40:33.913Z,4.43
2022-11-30T19:43:00.419Z,4.46
2022-11-30T19:45:27.105Z,4.48
2022-11-30T19:47:56.491Z,4.35
2022-11-30T19:50:23.012Z,4.36
2022-11-30T19:52:49.383Z,4.38
2022-11-30T19:55:15.935Z,4.20
2022-11-30T19:57:42.382Z,4.35
2022-11-30T20:00:09.205Z,4.37
2022-11-30T20:02:35.694Z,4.38
2022-11-30T20:05:02.200Z,4.38
2022-11-30T20:07:28.698Z,4.39
2022-11-30T20:09:55.078Z,4.41
2022-11-30T20:12:21.737Z,4.41
2022-11-30T20:14:48.373Z,4.32
2022-11-30T20:17:15.145Z,4.31
2022-11-30T20:19:41.738Z,4.18
2022-11-30T20:22:08.633Z,4.21
2022-11-30T20:24:36.259Z,4.18
2022-11-30T20:27:02.759Z,4.23
2022-11-30T20:29:29.146Z,4.25
2022-11-30T20:31:56.066Z,4.23
2022-11-30T20:34:22.602Z,4.34
2022-11-30T20:36:48.996Z,4.40
2022-11-30T20:39:15.414Z,4.44
2022-11-30T20:41:41.824Z,4.49
2022-11-30T20:44:13.407Z,4.54
2022-11-30T20:46:39.794Z,4.69
2022-11-30T20:49:14.051Z,4.76
2022-11-30T20:51:40.368Z,4.86
2022-11-30T20:54:07.286Z,4.88
2022-11-30T20:56:37.577Z,4.99
2022-11-30T20:59:12.283Z,5.05
2022-11-30T21:01:46.181Z,5.12
2022-11-30T21:04:12.568Z,5.07
2022-11-30T21:06:39.013Z,5.18
2022-11-30T21:09:05.407Z,5.19
2022-11-30T21:11:31.742Z,5.23
2022-11-30T21:13:58.657Z,5.24
2022-11-30T21:16:28.628Z,5.33
2022-11-30T21:18:57.556Z,5.40
2022-11-30T21:21:25.962Z,5.38
2022-11-30T21:23:52.591Z,5.39
2022-11-30T21:26:24.484Z,5.44
2022-11-30T21:28:53.197Z,5.39
2022-11-30T21:31:20.654Z,5.36
2022-11-30T21:33:52.808Z,5.40
2022-11-30T21:36:21.796Z,5.38
2022-11-30T21:38:48.160Z,5.47
2022-11-30T21:41:14.565Z,5.51
2022-11-30T21:43:41.784Z,5.44
2022-11-30T21:46:10.222Z,5.41
2022-11-30T21:48:37.868Z,5.41
2022-11-30T21:51:10.106Z,5.43
2022-11-30T21:53:40.434Z,5.42
2022-11-30T21:56:09.544Z,5.42
2022-11-30T21:58:35.847Z,5.35
2022-11-30T22:01:02.750Z,5.31
2022-11-30T22:03:29.569Z,5.26
2022-11-30T22:06:07.433Z,5.27
2022-11-30T22:08:34.331Z,5.20
2022-11-30T22:11:07.632Z,5.13
2022-11-30T22:13:34.737Z,5.06
2022-11-30T22:16:06.885Z,5.00
2022-11-30T22:18:34.180Z,4.98
2022-11-30T22:21:06.258Z,4.98
2022-11-30T22:23:35.926Z,4.96
2022-11-30T22:26:17.744Z,4.98
2022-11-30T22:28:53.304Z,4.98
2022-11-30T22:31:21.998Z,4.97
2022-11-30T22:33:48.708Z,4.99
2022-11-30T22:36:17.551Z,5.02
2022-11-30T22:38:44.929Z,5.00
2022-11-30T22:41:14.351Z,4.99
2022-11-30T22:43:41.810Z,4.96
2022-11-30T22:46:14.408Z,4.94
2022-11-30T22:48:41.572Z,4.91
2022-11-30T22:51:11.872Z,4.90
2022-11-30T22:53:39.137Z,4.88
2022-11-30T22:56:12.858Z,4.87
2022-11-30T22:58:40.237Z,4.85
2022-11-30T23:01:24.359Z,4.87
2022-11-30T23:03:53.412Z,4.85
2022-11-30T23:06:21.183Z,4.84
2022-11-30T23:08:49.099Z,4.82
2022-11-30T23:11:19.339Z,4.82
2022-11-30T23:13:45.991Z,4.84
2022-11-30T23:16:14.158Z,4.90
2022-11-30T23:18:48.224Z,4.92
2022-11-30T23:21:17.490Z,4.91
2022-11-30T23:23:44.998Z,4.98
2022-11-30T23:26:17.736Z,5.03
2022-11-30T23:28:45.858Z,5.08
2022-11-30T23:31:33.716Z,5.07
2022-11-30T23:34:03.635Z,5.04
2022-11-30T23:36:29.969Z,5.02
2022-11-30T23:39:01.700Z,5.08
2022-11-30T23:41:28.162Z,5.08
2022-11-30T23:43:54.559Z,5.06
2022-11-30T23:46:21.594Z,5.10
2022-11-30T23:48:48.249Z,5.08
2022-11-30T23:51:14.615Z,5.13
2022-11-30T23:53:41.103Z,5.18
2022-11-30T23:56:11.551Z,5.20
2022-11-30T23:58:37.927Z,5.12
